createdAt,value
2022-09-23T00:00:46.329Z,101795.00
2022-09-23T00:03:13.716Z,101794.00
2022-09-23T00:05:40.187Z,101798.00
2022-09-23T00:08:08.428Z,101787.00
2022-09-23T00:10:37.966Z,101782.00
2022-09-23T00:13:05.836Z,101785.00
2022-09-23T00:15:37.155Z,101783.00
2022-09-23T00:18:05.251Z,101784.00
2022-09-23T00:20:36.245Z,101779.00
2022-09-23T00:23:02.976Z,101785.00
2022-09-23T00:25:32.073Z,101789.00
2022-09-23T00:27:58.990Z,101786.00
2022-09-23T00:30:25.601Z,101775.00
2022-09-23T00:32:53.134Z,101780.00
2022-09-23T00:35:20.123Z,101778.00
2022-09-23T00:37:46.580Z,101776.00
2022-09-23T00:40:14.074Z,101782.00
2022-09-23T00:42:49.399Z,101774.00
2022-09-23T00:45:16.805Z,101776.00
2022-09-23T00:47:52.523Z,101767.00
2022-09-23T00:50:31.004Z,101779.00
2022-09-23T00:53:00.336Z,101773.00
2022-09-23T00:55:30.701Z,101775.00
2022-09-23T00:58:00.232Z,101769.00
2022-09-23T01:00:26.848Z,101773.00
2022-09-23T01:02:53.321Z,101761.00
2022-09-23T01:05:21.534Z,101761.00
2022-09-23T01:07:48.230Z,101762.00
2022-09-23T01:10:16.847Z,101756.00
2022-09-23T01:12:52.091Z,101750.00
2022-09-23T01:15:38.791Z,101756.00
2022-09-23T01:18:43.522Z,101751.00
2022-09-23T01:21:17.991Z,101744.00
2022-09-23T01:24:08.121Z,101751.00
2022-09-23T01:26:56.566Z,101743.00
2022-09-23T01:29:23.760Z,101738.00
2022-09-23T01:32:11.003Z,101742.00
2022-09-23T01:35:13.063Z,101737.00
2022-09-23T01:38:11.447Z,101736.00
2022-09-23T01:40:45.083Z,101742.00
2022-09-23T01:43:31.080Z,101735.00
2022-09-23T01:46:00.345Z,101733.00
2022-09-23T01:48:40.217Z,101728.00
2022-09-23T01:51:14.781Z,101732.00
2022-09-23T01:53:49.532Z,101726.00
2022-09-23T01:56:22.693Z,101721.00
2022-09-23T01:59:01.507Z,101728.00
2022-09-23T02:01:40.295Z,101725.00
2022-09-23T02:04:17.630Z,101725.00
2022-09-23T02:06:48.471Z,101715.00
2022-09-23T02:09:18.133Z,101717.00
2022-09-23T02:11:48.090Z,101710.00
2022-09-23T02:14:19.417Z,101716.00
2022-09-23T02:16:52.071Z,101716.00
2022-09-23T02:19:29.077Z,101714.00
2022-09-23T02:22:24.376Z,101718.00
2022-09-23T02:24:51.021Z,101700.00
2022-09-23T02:28:06.230Z,101700.00
2022-09-23T02:30:44.720Z,101701.00
2022-09-23T02:33:20.377Z,101696.00
2022-09-23T02:35:55.468Z,101689.00
2022-09-23T02:38:34.747Z,101684.00
2022-09-23T02:41:10.389Z,101678.00
2022-09-23T02:43:46.432Z,101682.00
2022-09-23T02:46:13.271Z,101679.00
2022-09-23T02:48:49.196Z,101674.00
2022-09-23T02:51:15.863Z,101673.00
2022-09-23T02:53:43.247Z,101672.00
2022-09-23T02:56:19.017Z,101670.00
2022-09-23T02:58:46.983Z,101674.00
2022-09-23T03:01:39.446Z,101672.00
2022-09-23T03:04:35.432Z,101663.00
2022-09-23T03:07:18.512Z,101670.00
2022-09-23T03:09:52.690Z,101670.00
2022-09-23T03:12:35.925Z,101667.00
2022-09-23T03:15:14.302Z,101666.00
2022-09-23T03:17:52.784Z,101657.00
2022-09-23T03:20:35.535Z,101658.00
2022-09-23T03:23:08.104Z,101654.00
2022-09-23T03:25:38.186Z,101647.00
2022-09-23T03:28:06.057Z,101644.00
2022-09-23T03:30:35.570Z,101648.00
2022-09-23T03:33:06.009Z,101650.00
2022-09-23T03:35:58.678Z,101645.00
2022-09-23T03:38:30.237Z,101650.00
2022-09-23T03:41:00.396Z,101638.00
2022-09-23T03:43:26.795Z,101633.00
2022-09-23T03:45:54.556Z,101633.00
2022-09-23T03:48:22.261Z,101634.00
2022-09-23T03:50:48.942Z,101634.00
2022-09-23T03:53:15.370Z,101630.00
2022-09-23T03:55:41.826Z,101629.00
2022-09-23T03:58:08.321Z,101635.00
2022-09-23T04:00:36.301Z,101636.00
2022-09-23T04:03:02.839Z,101629.00
2022-09-23T04:05:29.234Z,101627.00
2022-09-23T04:07:55.735Z,101626.00
2022-09-23T04:10:22.698Z,101624.00
2022-09-23T04:12:49.106Z,101618.00
2022-09-23T04:15:16.899Z,101617.00
2022-09-23T04:17:43.286Z,101614.00
2022-09-23T04:20:10.014Z,101618.00
2022-09-23T04:22:38.607Z,101620.00
2022-09-23T04:25:05.431Z,101616.00
2022-09-23T04:27:36.899Z,101609.00
2022-09-23T04:30:05.108Z,101607.00
2022-09-23T04:32:31.729Z,101604.00
2022-09-23T04:34:58.255Z,101607.00
2022-09-23T04:37:24.644Z,101603.00
2022-09-23T04:39:51.097Z,101615.00
2022-09-23T04:42:17.573Z,101605.00
2022-09-23T04:44:46.091Z,101603.00
2022-09-23T04:47:12.611Z,101593.00
2022-09-23T04:49:39.071Z,101598.00
2022-09-23T04:52:05.747Z,101601.00
2022-09-23T04:54:32.916Z,101603.00
2022-09-23T04:56:59.341Z,101603.00
2022-09-23T04:59:25.782Z,101596.00
2022-09-23T05:01:54.379Z,101604.00
2022-09-23T05:04:20.826Z,101604.00
2022-09-23T05:06:47.405Z,101598.00
2022-09-23T05:09:17.642Z,101594.00
2022-09-23T05:11:45.382Z,101594.00
2022-09-23T05:14:12.140Z,101606.00
2022-09-23T05:16:38.613Z,101591.00
2022-09-23T05:19:05.694Z,101589.00
2022-09-23T05:21:32.328Z,101595.00
2022-09-23T05:24:00.795Z,101589.00
2022-09-23T05:26:29.468Z,101587.00
2022-09-23T05:28:59.693Z,101599.00
2022-09-23T05:31:29.183Z,101603.00
2022-09-23T05:33:58.626Z,101592.00
2022-09-23T05:36:26.713Z,101594.00
2022-09-23T05:38:53.637Z,101594.00
2022-09-23T05:41:23.120Z,101589.00
2022-09-23T05:43:51.845Z,101591.00
2022-09-23T05:46:21.030Z,101589.00
2022-09-23T05:48:47.713Z,101588.00
2022-09-23T05:51:22.302Z,101595.00
2022-09-23T05:53:51.222Z,101594.00
2022-09-23T05:56:19.630Z,101592.00
2022-09-23T05:58:58.292Z,101593.00
2022-09-23T06:01:27.666Z,101584.00
2022-09-23T06:03:55.951Z,101587.00
2022-09-23T06:06:42.268Z,101584.00
2022-09-23T06:09:13.325Z,101585.00
2022-09-23T06:11:39.769Z,101587.00
2022-09-23T06:14:06.357Z,101591.00
2022-09-23T06:16:35.479Z,101564.00
2022-09-23T06:19:05.843Z,101578.00
2022-09-23T06:21:34.775Z,101566.00
2022-09-23T06:24:01.736Z,101575.00
2022-09-23T06:26:33.881Z,101574.00
2022-09-23T06:29:02.522Z,101556.00
2022-09-23T06:31:29.735Z,101582.00
2022-09-23T06:34:08.397Z,101583.00
2022-09-23T06:36:43.226Z,101518.00
2022-09-23T06:39:10.120Z,101600.00
2022-09-23T06:41:36.756Z,101586.00
2022-09-23T06:44:03.323Z,101578.00
2022-09-23T06:46:31.841Z,101603.00
2022-09-23T06:48:58.621Z,101592.00
2022-09-23T06:51:25.158Z,101594.00
2022-09-23T06:53:51.636Z,101599.00
2022-09-23T06:56:19.895Z,101592.00
2022-09-23T06:58:46.837Z,101586.00
2022-09-23T07:01:16.231Z,101587.00
2022-09-23T07:03:43.769Z,101586.00
2022-09-23T07:06:10.183Z,101578.00
2022-09-23T07:08:36.714Z,101577.00
2022-09-23T07:11:06.342Z,101581.00
2022-09-23T07:13:33.500Z,101582.00
2022-09-23T07:16:02.359Z,101587.00
2022-09-23T07:18:36.755Z,101579.00
2022-09-23T07:21:17.868Z,101581.00
2022-09-23T07:23:50.083Z,101582.00
2022-09-23T07:26:18.002Z,101584.00
2022-09-23T07:28:44.439Z,101578.00
2022-09-23T07:31:14.429Z,101579.00
2022-09-23T07:33:44.196Z,101577.00
2022-09-23T07:36:14.501Z,101588.00
2022-09-23T07:38:45.212Z,101587.00
2022-09-23T07:41:15.237Z,101582.00
2022-09-23T07:43:41.751Z,101577.00
2022-09-23T07:46:11.584Z,101580.00
2022-09-23T07:48:38.492Z,101588.00
2022-09-23T07:51:20.308Z,101589.00
2022-09-23T07:53:49.162Z,101585.00
2022-09-23T07:56:17.303Z,101590.00
2022-09-23T07:58:43.765Z,101597.00
2022-09-23T08:01:12.050Z,101594.00
2022-09-23T08:03:39.545Z,101592.00
2022-09-23T08:06:13.212Z,101595.00
2022-09-23T08:08:43.833Z,101585.00
2022-09-23T08:11:13.174Z,101593.00
2022-09-23T08:13:39.848Z,101594.00
2022-09-23T08:16:06.682Z,101593.00
2022-09-23T08:18:33.931Z,101593.00
2022-09-23T08:21:00.351Z,101599.00
2022-09-23T08:23:27.688Z,101595.00
2022-09-23T08:26:00.854Z,101596.00
2022-09-23T08:28:27.826Z,101599.00
2022-09-23T08:30:54.652Z,101597.00
2022-09-23T08:33:23.499Z,101589.00
2022-09-23T08:35:50.512Z,101595.00
2022-09-23T08:38:17.064Z,101588.00
2022-09-23T08:40:47.376Z,101582.00
2022-09-23T08:43:28.945Z,101584.00
2022-09-23T08:45:59.582Z,101580.00
2022-09-23T08:48:30.546Z,101580.00
2022-09-23T08:51:05.265Z,101577.00
2022-09-23T08:53:37.977Z,101576.00
2022-09-23T08:56:15.871Z,101574.00
2022-09-23T08:59:01.014Z,101571.00
2022-09-23T09:01:41.339Z,101590.00
2022-09-23T09:04:17.135Z,101572.00
2022-09-23T09:06:53.887Z,101573.00
2022-09-23T09:09:33.175Z,101576.00
2022-09-23T09:12:17.493Z,101572.00
2022-09-23T09:15:03.216Z,101579.00
2022-09-23T09:17:48.826Z,101583.00
2022-09-23T09:20:16.760Z,101581.00
2022-09-23T09:22:52.893Z,101579.00
2022-09-23T09:25:24.365Z,101585.00
2022-09-23T09:27:51.833Z,101581.00
2022-09-23T09:30:19.414Z,101579.00
2022-09-23T09:32:56.902Z,101574.00
2022-09-23T09:35:35.017Z,101565.00
2022-09-23T09:38:01.843Z,101571.00
2022-09-23T09:40:28.376Z,101575.00
2022-09-23T09:42:54.878Z,101561.00
2022-09-23T09:46:01.428Z,101559.00
2022-09-23T09:48:41.240Z,101552.00
2022-09-23T09:51:21.530Z,101549.00
2022-09-23T09:53:51.902Z,101543.00
2022-09-23T09:56:22.954Z,101541.00
2022-09-23T09:58:55.098Z,101547.00
2022-09-23T10:01:33.245Z,101535.00
2022-09-23T10:04:23.752Z,101537.00
2022-09-23T10:07:12.893Z,101538.00
2022-09-23T10:09:47.242Z,101535.00
2022-09-23T10:12:18.591Z,101537.00
2022-09-23T10:14:50.483Z,101539.00
2022-09-23T10:17:23.261Z,101533.00
2022-09-23T10:20:10.167Z,101525.00
2022-09-23T10:22:42.778Z,101531.00
2022-09-23T10:25:21.047Z,101519.00
2022-09-23T10:27:47.467Z,101515.00
2022-09-23T10:30:23.839Z,101525.00
2022-09-23T10:32:53.264Z,101520.00
2022-09-23T10:35:22.604Z,101511.00
2022-09-23T10:37:59.593Z,101513.00
2022-09-23T10:40:56.769Z,101523.00
2022-09-23T10:43:48.749Z,101506.00
2022-09-23T10:46:38.652Z,101515.00
2022-09-23T10:49:19.620Z,101517.00
2022-09-23T10:52:09.705Z,101518.00
2022-09-23T10:55:04.792Z,101515.00
2022-09-23T10:57:41.084Z,101516.00
2022-09-23T11:00:29.353Z,101516.00
2022-09-23T11:03:24.893Z,101511.00
2022-09-23T11:06:00.797Z,101505.00
2022-09-23T11:09:02.076Z,101503.00
2022-09-23T11:11:41.358Z,101497.00
2022-09-23T11:14:15.793Z,101489.00
2022-09-23T11:17:15.021Z,101481.00
2022-09-23T11:20:09.658Z,101478.00
2022-09-23T11:23:07.116Z,101480.00
2022-09-23T11:25:47.453Z,101474.00
2022-09-23T11:29:07.254Z,101477.00
2022-09-23T11:31:59.644Z,101465.00
2022-09-23T11:34:52.632Z,101456.00
2022-09-23T11:37:26.275Z,101461.00
2022-09-23T11:40:03.410Z,101457.00
2022-09-23T11:42:38.372Z,101446.00
2022-09-23T11:45:16.378Z,101442.00
2022-09-23T11:47:49.940Z,101438.00
2022-09-23T11:50:29.574Z,101439.00
2022-09-23T11:53:15.723Z,101450.00
2022-09-23T11:56:02.000Z,101433.00
2022-09-23T11:58:33.305Z,101426.00
2022-09-23T12:01:07.071Z,101423.00
2022-09-23T12:03:46.720Z,101419.00
2022-09-23T12:06:18.519Z,101420.00
2022-09-23T12:08:44.989Z,101409.00
2022-09-23T12:11:42.563Z,101399.00
2022-09-23T12:14:29.371Z,101400.00
2022-09-23T12:17:14.786Z,101410.00
2022-09-23T12:20:20.823Z,101412.00
2022-09-23T12:23:13.212Z,101408.00
2022-09-23T12:25:46.707Z,101404.00
2022-09-23T12:28:19.052Z,101399.00
2022-09-23T12:30:47.431Z,101397.00
2022-09-23T12:33:26.142Z,101388.00
2022-09-23T12:35:54.108Z,101390.00
2022-09-23T12:38:26.938Z,101392.00
2022-09-23T12:40:55.822Z,101389.00
2022-09-23T12:43:30.075Z,101390.00
2022-09-23T12:46:17.492Z,101389.00
2022-09-23T12:48:57.734Z,101380.00
2022-09-23T12:51:26.670Z,101379.00
2022-09-23T12:54:05.300Z,101375.00
2022-09-23T12:56:37.606Z,101381.00
2022-09-23T12:59:16.414Z,101377.00
2022-09-23T13:01:44.249Z,101369.00
2022-09-23T13:04:52.504Z,101361.00
2022-09-23T13:07:25.342Z,101359.00
2022-09-23T13:09:55.468Z,101348.00
2022-09-23T13:12:31.057Z,101347.00
2022-09-23T13:15:03.378Z,101344.00
2022-09-23T13:17:37.295Z,101343.00
2022-09-23T13:20:34.831Z,101343.00
2022-09-23T13:23:22.690Z,101341.00
2022-09-23T13:25:52.030Z,101328.00
2022-09-23T13:28:31.811Z,101320.00
2022-09-23T13:30:58.981Z,101324.00
2022-09-23T13:33:38.947Z,101324.00
2022-09-23T13:36:12.043Z,101325.00
2022-09-23T13:38:38.495Z,101313.00
2022-09-23T13:41:11.219Z,101304.00
2022-09-23T13:43:44.738Z,101310.00
2022-09-23T13:46:19.966Z,101298.00
2022-09-23T13:48:48.367Z,101299.00
2022-09-23T13:51:27.212Z,101296.00
2022-09-23T13:53:55.310Z,101294.00
2022-09-23T13:56:22.670Z,101289.00
2022-09-23T13:58:49.114Z,101293.00
2022-09-23T14:01:34.057Z,101284.00
2022-09-23T14:04:02.379Z,101289.00
2022-09-23T14:06:37.897Z,101287.00
2022-09-23T14:09:06.329Z,101288.00
2022-09-23T14:11:35.388Z,101282.00
2022-09-23T14:14:07.658Z,101286.00
2022-09-23T14:16:40.195Z,101284.00
2022-09-23T14:19:11.374Z,101286.00
2022-09-23T14:21:39.848Z,101282.00
2022-09-23T14:24:23.820Z,101285.00
2022-09-23T14:26:56.423Z,101280.00
2022-09-23T14:29:30.552Z,101275.00
2022-09-23T14:32:00.639Z,101276.00
2022-09-23T14:34:45.484Z,101269.00
2022-09-23T14:37:36.686Z,101267.00
2022-09-23T14:40:19.650Z,101271.00
2022-09-23T14:42:52.137Z,101269.00
2022-09-23T14:45:25.331Z,101278.00
2022-09-23T14:47:57.991Z,101276.00
2022-09-23T14:50:45.977Z,101267.00
2022-09-23T14:53:24.598Z,101278.00
2022-09-23T14:55:53.851Z,101276.00
2022-09-23T14:58:25.149Z,101270.00
2022-09-23T15:00:54.264Z,101274.00
2022-09-23T15:03:21.582Z,101269.00
2022-09-23T15:05:49.087Z,101262.00
2022-09-23T15:08:21.396Z,101268.00
2022-09-23T15:10:48.162Z,101266.00
2022-09-23T15:13:18.255Z,101270.00
2022-09-23T15:15:45.141Z,101267.00
2022-09-23T15:18:22.252Z,101264.00
2022-09-23T15:20:52.205Z,101258.00
2022-09-23T15:23:40.983Z,101266.00
2022-09-23T15:26:18.020Z,101258.00
2022-09-23T15:28:45.672Z,101258.00
2022-09-23T15:31:20.240Z,101253.00
2022-09-23T15:33:47.959Z,101253.00
2022-09-23T15:36:21.354Z,101255.00
2022-09-23T15:38:47.988Z,101250.00
2022-09-23T15:41:15.278Z,101251.00
2022-09-23T15:43:42.128Z,101246.00
2022-09-23T15:46:14.574Z,101249.00
2022-09-23T15:48:44.565Z,101248.00
2022-09-23T15:51:14.753Z,101249.00
2022-09-23T15:53:41.213Z,101238.00
2022-09-23T15:56:07.756Z,101243.00
2022-09-23T15:58:34.177Z,101238.00
2022-09-23T16:01:00.875Z,101239.00
2022-09-23T16:03:30.450Z,101240.00
2022-09-23T16:06:00.555Z,101233.00
2022-09-23T16:08:28.198Z,101231.00
2022-09-23T16:10:55.079Z,101239.00
2022-09-23T16:13:21.844Z,101230.00
2022-09-23T16:15:48.257Z,101231.00
2022-09-23T16:18:14.776Z,101236.00
2022-09-23T16:20:44.644Z,101230.00
2022-09-23T16:23:34.312Z,101235.00
2022-09-23T16:26:07.575Z,101236.00
2022-09-23T16:28:34.522Z,101233.00
2022-09-23T16:31:00.941Z,101232.00
2022-09-23T16:33:27.745Z,101230.00
2022-09-23T16:35:55.180Z,101228.00
2022-09-23T16:38:21.621Z,101232.00
2022-09-23T16:40:48.234Z,101237.00
2022-09-23T16:43:14.792Z,101225.00
2022-09-23T16:46:00.386Z,101227.00
2022-09-23T16:48:28.613Z,101230.00
2022-09-23T16:50:57.163Z,101227.00
2022-09-23T16:53:28.494Z,101226.00
2022-09-23T16:56:01.089Z,101221.00
2022-09-23T16:58:27.522Z,101220.00
2022-09-23T17:01:16.455Z,101225.00
2022-09-23T17:03:43.015Z,101209.00
2022-09-23T17:06:28.217Z,101209.00
2022-09-23T17:08:54.912Z,101206.00
2022-09-23T17:11:22.674Z,101209.00
2022-09-23T17:13:57.116Z,101204.00
2022-09-23T17:16:36.680Z,101199.00
2022-09-23T17:19:14.940Z,101197.00
2022-09-23T17:21:43.621Z,101204.00
2022-09-23T17:24:12.842Z,101199.00
2022-09-23T17:26:39.241Z,101200.00
2022-09-23T17:29:19.347Z,101207.00
2022-09-23T17:31:47.124Z,101206.00
2022-09-23T17:34:20.093Z,101201.00
2022-09-23T17:36:55.904Z,101200.00
2022-09-23T17:39:22.489Z,101204.00
2022-09-23T17:41:48.922Z,101200.00
2022-09-23T17:44:17.849Z,101201.00
2022-09-23T17:46:49.205Z,101208.00
2022-09-23T17:49:15.670Z,101204.00
2022-09-23T17:51:42.683Z,101202.00
2022-09-23T17:54:10.092Z,101195.00
2022-09-23T17:56:36.545Z,101192.00
2022-09-23T17:59:03.195Z,101192.00
2022-09-23T18:01:29.974Z,101200.00
2022-09-23T18:04:01.106Z,101199.00
2022-09-23T18:06:31.763Z,101195.00
2022-09-23T18:09:01.552Z,101202.00
2022-09-23T18:11:30.087Z,101212.00
2022-09-23T18:14:01.770Z,101213.00
2022-09-23T18:16:36.949Z,101208.00
2022-09-23T18:19:04.355Z,101210.00
2022-09-23T18:21:33.098Z,101205.00
2022-09-23T18:24:28.051Z,101200.00
2022-09-23T18:26:49.318Z,101203.00
2022-09-23T18:29:16.507Z,101203.00
2022-09-23T18:31:45.582Z,101198.00
2022-09-23T18:34:14.203Z,101195.00
2022-09-23T18:36:40.686Z,101201.00
2022-09-23T18:39:11.877Z,101190.00
2022-09-23T18:41:38.989Z,101187.00
2022-09-23T18:44:06.834Z,101199.00
2022-09-23T18:46:34.411Z,101196.00
2022-09-23T18:49:19.406Z,101183.00
2022-09-23T18:51:56.963Z,101187.00
2022-09-23T18:54:25.388Z,101184.00
2022-09-23T18:56:55.036Z,101183.00
2022-09-23T18:59:25.929Z,101191.00
2022-09-23T19:01:54.938Z,101192.00
2022-09-23T19:04:24.473Z,101180.00
2022-09-23T19:06:51.075Z,101187.00
2022-09-23T19:09:18.267Z,101189.00
2022-09-23T19:11:45.228Z,101185.00
2022-09-23T19:14:12.728Z,101184.00
2022-09-23T19:16:40.565Z,101189.00
2022-09-23T19:19:07.730Z,101183.00
2022-09-23T19:21:34.996Z,101188.00
2022-09-23T19:24:07.094Z,101179.00
2022-09-23T19:26:43.161Z,101181.00
2022-09-23T19:29:16.737Z,101181.00
2022-09-23T19:31:43.835Z,101184.00
2022-09-23T19:34:18.525Z,101180.00
2022-09-23T19:36:47.016Z,101177.00
2022-09-23T19:39:19.331Z,101182.00
2022-09-23T19:41:48.954Z,101165.00
2022-09-23T19:44:16.440Z,101171.00
2022-09-23T19:46:45.434Z,101176.00
2022-09-23T19:49:12.280Z,101170.00
2022-09-23T19:51:39.031Z,101164.00
2022-09-23T19:54:07.271Z,101171.00
2022-09-23T19:56:34.585Z,101172.00
2022-09-23T19:59:03.236Z,101171.00
2022-09-23T20:01:32.082Z,101178.00
2022-09-23T20:04:00.188Z,101175.00
2022-09-23T20:06:31.438Z,101172.00
2022-09-23T20:09:01.996Z,101169.00
2022-09-23T20:11:29.152Z,101171.00
2022-09-23T20:14:09.529Z,101163.00
2022-09-23T20:16:37.264Z,101165.00
2022-09-23T20:19:05.501Z,101158.00
2022-09-23T20:21:33.444Z,101161.00
2022-09-23T20:24:00.098Z,101161.00
2022-09-23T20:26:45.078Z,101150.00
2022-09-23T20:29:11.557Z,101150.00
2022-09-23T20:31:40.250Z,101147.00
2022-09-23T20:34:08.144Z,101144.00
2022-09-23T20:36:36.132Z,101148.00
2022-09-23T20:39:08.689Z,101158.00
2022-09-23T20:41:37.832Z,101148.00
2022-09-23T20:44:07.721Z,101141.00
2022-09-23T20:46:34.771Z,101137.00
2022-09-23T20:49:01.922Z,101145.00
2022-09-23T20:51:28.721Z,101150.00
2022-09-23T20:53:55.229Z,101148.00
2022-09-23T20:56:22.148Z,101142.00
2022-09-23T20:58:50.434Z,101143.00
2022-09-23T21:01:17.383Z,101143.00
2022-09-23T21:03:46.424Z,101139.00
2022-09-23T21:06:18.007Z,101129.00
2022-09-23T21:08:44.634Z,101131.00
2022-09-23T21:11:13.697Z,101135.00
2022-09-23T21:13:46.117Z,101126.00
2022-09-23T21:16:13.159Z,101129.00
2022-09-23T21:18:39.643Z,101124.00
2022-09-23T21:21:06.472Z,101125.00
2022-09-23T21:23:34.850Z,101120.00
2022-09-23T21:26:06.613Z,101128.00
2022-09-23T21:28:38.549Z,101119.00
2022-09-23T21:31:08.401Z,101124.00
2022-09-23T21:33:37.657Z,101114.00
2022-09-23T21:36:06.019Z,101115.00
2022-09-23T21:38:39.030Z,101116.00
2022-09-23T21:41:07.986Z,101108.00
2022-09-23T21:43:37.287Z,101118.00
2022-09-23T21:46:05.775Z,101115.00
2022-09-23T21:48:34.308Z,101111.00
2022-09-23T21:51:05.579Z,101103.00
2022-09-23T21:53:33.587Z,101105.00
2022-09-23T21:56:06.202Z,101103.00
2022-09-23T21:58:34.437Z,101101.00
2022-09-23T22:01:02.185Z,101111.00
2022-09-23T22:03:28.811Z,101106.00
2022-09-23T22:06:21.325Z,101093.00
2022-09-23T22:08:49.984Z,101102.00
2022-09-23T22:11:37.793Z,101101.00
2022-09-23T22:14:07.225Z,101109.00
2022-09-23T22:16:35.947Z,101105.00
2022-09-23T22:19:06.787Z,101101.00
2022-09-23T22:21:38.206Z,101103.00
2022-09-23T22:24:07.434Z,101111.00
2022-09-23T22:26:36.746Z,101100.00
2022-09-23T22:29:23.514Z,101095.00
2022-09-23T22:32:08.577Z,101100.00
2022-09-23T22:34:49.450Z,101084.00
2022-09-23T22:37:20.108Z,101087.00
2022-09-23T22:39:47.013Z,101086.00
2022-09-23T22:42:14.501Z,101077.00
2022-09-23T22:44:40.988Z,101083.00
2022-09-23T22:47:09.174Z,101080.00
2022-09-23T22:49:35.599Z,101078.00
2022-09-23T22:52:04.009Z,101075.00
2022-09-23T22:54:33.982Z,101071.00
2022-09-23T22:57:03.924Z,101076.00
2022-09-23T22:59:30.368Z,101074.00
2022-09-23T23:01:58.860Z,101075.00
2022-09-23T23:04:25.723Z,101080.00
2022-09-23T23:06:52.365Z,101068.00
2022-09-23T23:09:19.233Z,101071.00
2022-09-23T23:11:47.051Z,101067.00
2022-09-23T23:14:16.188Z,101074.00
2022-09-23T23:16:43.705Z,101065.00
2022-09-23T23:19:13.361Z,101067.00
2022-09-23T23:21:43.271Z,101065.00
2022-09-23T23:24:21.747Z,101069.00
2022-09-23T23:26:48.828Z,101062.00
2022-09-23T23:29:17.688Z,101058.00
2022-09-23T23:31:44.838Z,101057.00
2022-09-23T23:34:16.870Z,101053.00
2022-09-23T23:36:44.375Z,101056.00
2022-09-23T23:39:11.744Z,101060.00
2022-09-23T23:41:39.395Z,101057.00
2022-09-23T23:44:06.417Z,101049.00
2022-09-23T23:46:33.127Z,101045.00
2022-09-23T23:49:00.346Z,101036.00
2022-09-23T23:51:27.292Z,101040.00
2022-09-23T23:53:54.771Z,101039.00
2022-09-23T23:56:23.301Z,101043.00
2022-09-23T23:58:57.933Z,101046.00
